Terminal Aerodrome Forecast
Issued by NWS Wilmington, NC

Current Version | Previous Version | Text Only | Print | Product List | Glossary On
Versions: 1 2 3 4 5 6 7 8 9 10 11 12 13 14 15
000
FTUS42 KILM 031139
TAFLBT
TAF
KLBT 031139Z 0312/0412 18009KT P6SM VCSH SCT025 SCT035 BKN070
      TEMPO 0313/0317 3SM SHRA BKN025
     FM040100 15004KT P6SM SCT070 BKN120=

USA.gov is the U.S. government's official web portal to all federal, state and local government web resources and services.